Terminal Aerodrome Forecast
Issued by NWS

Home | Current Version | Previous Version | Text Only | Print | Product List | Glossary On
Versions: 1 2 3 4 5 6 7 8 9 10 11 12 13 14 15 16 17
000
FTUS41 KBTV 282300
TAFSLK
TAF
KSLK 282331Z 2900/2924 VRB03KT P6SM OVC050
     FM290400 VRB03KT P6SM SCT050
     FM290700 00000KT 1/4SM FG VV001
     FM291300 VRB03KT P6SM SKC=

USA.gov is the U.S. government's official web portal to all federal, state and local government web resources and services.